Skip Navigation LinksHome page > Weather > Current weather Skip Navigation Links

Current Weather

San Francisco International, San Francisco

For information only: do not use for flight planning or navigation.
Latest weather
Observation time Thursday, April 17, 2014 6:56 PM PDT
Local time Thursday, April 17, 2014 7:58 PM PDT
Flight conditions Visual Meteorological Conditions
Winds
Wind direction West (270°)
Wind speed 29 mph
Wind gusting to 34 mph
Peak wind speed 34 mph, 6:55 PM
Peak wind direction West (280°)
Visibility 10 mi.
Sky condition
Ceiling unlimited
Cloud layer scattered clouds 20,000 ft.
Temperature 62°F
Dewpoint 46°F
Altimeter 29.84 in.Hg
Derived measurements
Relative humidity 56%
Density altitude 446 ft.
Sea-level pressure 29.84 in.Hg
Remarks
Automated weather observing station with precipitation discriminator.
METAR KSFO 180156Z 27025G30KT 10SM SCT200 17/08 A2984 RMK AO2 PK WND 28030/0155 SLP106 T01670078

Settings

Location code

InnerDrive.Weather 4.0.4869.0 Release CLR 4.0.30319.18449
Copyright ©2013 Inner Drive Technology. All rights reserved. Portions Copyright ©1986-2013 David Braverman.

Find weather

Site navigation


Skip Navigation Links

Place info

Page info

PayPal - The safer, easier way to pay online!

Return home.

Copyright ©2014 Inner Drive Technology. Purveyors of fine, hand-crafted computer software. Page printed 2014-04-18T02:58:28 UTC.